Close

Questo sito utlizza cookie. Può leggere come li usiamo nella nostra Privacy Policy.

Ronchi Tower
Ronchi Tower

News

Posted by Fabio Davanzo - 26 Mar 2017
Views: 71

Come ogni anno, con l'arrivo dell'ora legale scatta l'orario estivo che per il Trieste Airport coincide con il primo volo del nuovo collegamento Ryanair con Roma Ciampino previsto verso le ore 21. 

In Homepage sono tornati i voli in real time e nella sezione Airport c'è l'elenco dei collegamenti previsti fino al 27 ottobre.

...

From Facebook

Real Time Flights

(Updated: 22 May - 19:09)    
Fonte: Triesteairport.it

Arrivals

Compagnia Volo Provenienza Previsto Note
Volotea 01638 Napoli 18:45
Alitalia 01361 Roma FCO 19:52
Ryanair 00168 London STN 20:55
Ryanair 07264 Valencia 21:10
Alitalia 01353 Milano LIN 21:40
Alitalia 01363 Roma FCO 22:35
Lufthansa 01938 Munich 22:50
Alitalia 01351 Milano LIN 9:30
Alitalia 01357 Roma FCO 10:25
Lufthansa 01934 Munich 12:25

Departures

Compagnia Volo Destinazione Effettivo Note
Volotea 01639 Napoli 19:25 Check-in aperto
Alitalia 01352 Milano LIN 18:55 Attesa decollo
Alitalia 01364 Roma FCO 19:00 Imbarco
Ryanair 00169 London STN 21:20
Ryanair 07265 Valencia 21:35
Lufthansa 01939 Munich 6:15
Alitalia 01350 Milano LIN 6:50
Alitalia 01356 Roma FCO 7:05
Alitalia 01354 Roma FCO 8:05
Alitalia 01360 Roma FCO 10:00

METAR & TAF

2017/05/22 16:50 LIPQ 221650Z 24005KT CAVOK 25/12 Q1015
2017/05/22 12:21 TAF LIPQ 221100Z 2212/2312 VRB05KT 9999 FEW030
2017/05/22 16:50 LIPZ 221650Z 14010KT CAVOK 23/14 Q1014 NOSIG
2017/05/22 12:21 TAF LIPZ 221100Z 2212/2318 16010KT 9999 SCT030 BECMG 2216/2218 VRB05KT TEMPO 2217/2222 TSRA BECMG 2308/2310 16010KT
2017/05/22 16:50 LIPH 221650Z 14006KT CAVOK 25/15 Q1014
2017/05/22 12:21 TAF LIPH 221100Z 2212/2312 VRB05KT CAVOK
2017/05/22 16:50 LIRF 221650Z 27006KT CAVOK 21/13 Q1017 NOSIG
2017/05/22 12:25 TAF LIRF 221100Z 2212/2318 26012KT CAVOK BECMG 2218/2220 VRB05KT BECMG 2308/2310 24012KT
2017/05/22 16:50 LIML 221650Z 22006KT 190V260 CAVOK 27/06 Q1014 NOSIG
2017/05/22 12:21 TAF LIML 221100Z 2212/2312 VRB05KT CAVOK
2017/05/22 16:50 EDDM 221650Z 01004KT 340V050 CAVOK 21/10 Q1016 NOSIG
2017/05/22 12:27 TAF EDDM 221100Z 2212/2318 08008KT 9999 FEW040 BECMG 2217/2219 VRB03KT BECMG 2306/2308 28008KT
2017/05/22 16:50 EGSS 221650Z AUTO 19011KT 9999 NCD 23/09 Q1014
2017/05/22 18:12 TAF EGSS 221704Z 2218/2324 19008KT CAVOK BECMG 2220/2223 30010KT BECMG 2309/2312 BKN035

FlightRadar24

Radar Meteo

Traffic data

Marzo 2017

Passeggeri: 59579+9,5% (rank: 23)
Nazionali 39301 +12,6% 22°
Internazionali 20035 +3,8% 22°

Movimenti: 1283+12,1% (rank: 20)
Tot commerciale 728 +7,5% 21°
Aviazione generale 555 +18,6%

Cargo (tons): 46-10,9% (rank: 20)

Gennaio - Marzo 2017

Passeggeri: 158088+7,5% (rank: 23)
Nazionali 104409 +10,6% 22°
Internazionali 53196 +2,1% 21°

Movimenti: 3701+12,1% (rank: 19)
Tot commerciale 2024 +6,7% 21°
Aviazione generale 1677 +19,4%

Cargo (tons): 107,2-15,1% (rank: 19)

Photo

Eurocopter EC-145
Eurocopter EC-145
Distinct views: 10
Eurocopter EC-145
Eurocopter EC-145
Distinct views: 36
Eurocopter EC-145
Eurocopter EC-145
Distinct views: 129
Antonov An-26
Antonov An-26
Total views: 412